createdAt,value
2022-09-02T00:01:34.114Z,10.04
2022-09-02T00:04:05.670Z,10.02
2022-09-02T00:06:34.228Z,10.02
2022-09-02T00:09:05.387Z,10.01
2022-09-02T00:11:34.735Z,10.00
2022-09-02T00:14:05.494Z,10.01
2022-09-02T00:16:33.844Z,9.97
2022-09-02T00:19:03.587Z,10.02
2022-09-02T00:21:33.070Z,10.03
2022-09-02T00:24:01.074Z,9.99
2022-09-02T00:26:30.377Z,9.98
2022-09-02T00:28:58.476Z,9.98
2022-09-02T00:31:29.775Z,9.96
2022-09-02T00:33:58.026Z,9.98
2022-09-02T00:36:26.119Z,9.97
2022-09-02T00:38:54.419Z,9.93
2022-09-02T00:41:26.091Z,10.00
2022-09-02T00:43:58.149Z,10.03
2022-09-02T00:46:28.128Z,10.03
2022-09-02T00:49:02.338Z,10.03
2022-09-02T00:51:35.358Z,10.07
2022-09-02T00:54:04.960Z,10.08
2022-09-02T00:56:33.627Z,10.06
2022-09-02T00:59:03.083Z,10.04
2022-09-02T01:01:31.434Z,10.05
2022-09-02T01:04:00.066Z,10.02
2022-09-02T01:06:33.028Z,10.03
2022-09-02T01:09:08.507Z,10.04
2022-09-02T01:11:43.375Z,10.09
2022-09-02T01:14:13.710Z,10.11
2022-09-02T01:16:43.178Z,10.06
2022-09-02T01:19:23.163Z,10.10
2022-09-02T01:21:53.347Z,10.12
2022-09-02T01:24:22.567Z,10.14
2022-09-02T01:26:54.492Z,10.15
2022-09-02T01:29:23.098Z,10.16
2022-09-02T01:31:51.512Z,10.18
2022-09-02T01:34:19.620Z,10.17
2022-09-02T01:36:47.647Z,10.17
2022-09-02T01:39:17.413Z,10.18
2022-09-02T01:41:45.652Z,10.18
2022-09-02T01:44:16.272Z,10.19
2022-09-02T01:46:44.754Z,10.19
2022-09-02T01:49:12.826Z,10.19
2022-09-02T01:51:40.818Z,10.17
2022-09-02T01:54:08.739Z,10.17
2022-09-02T01:56:38.296Z,10.20
2022-09-02T01:59:07.943Z,10.20
2022-09-02T02:01:36.450Z,10.19
2022-09-02T02:04:04.540Z,10.18
2022-09-02T02:06:32.656Z,10.17
2022-09-02T02:09:00.542Z,10.17
2022-09-02T02:11:28.462Z,10.18
2022-09-02T02:13:57.828Z,10.18
2022-09-02T02:16:26.687Z,10.15
2022-09-02T02:18:54.696Z,10.14
2022-09-02T02:21:22.590Z,10.12
2022-09-02T02:23:51.018Z,10.08
2022-09-02T02:26:18.952Z,10.03
2022-09-02T02:28:48.338Z,10.00
2022-09-02T02:31:17.746Z,9.99
2022-09-02T02:33:46.091Z,9.98
2022-09-02T02:36:14.450Z,9.95
2022-09-02T02:38:43.602Z,9.91
2022-09-02T02:41:11.468Z,9.88
2022-09-02T02:43:39.575Z,9.82
2022-09-02T02:46:08.215Z,9.78
2022-09-02T02:48:37.735Z,9.76
2022-09-02T02:51:06.391Z,9.76
2022-09-02T02:53:36.333Z,9.76
2022-09-02T02:56:05.911Z,9.69
2022-09-02T02:58:34.062Z,9.65
2022-09-02T03:01:02.543Z,9.58
2022-09-02T03:03:31.973Z,9.54
2022-09-02T03:06:01.318Z,9.52
2022-09-02T03:08:29.263Z,9.50
2022-09-02T03:10:58.076Z,9.48
2022-09-02T03:13:29.465Z,9.42
2022-09-02T03:15:57.586Z,9.41
2022-09-02T03:18:25.831Z,9.37
2022-09-02T03:20:53.988Z,9.36
2022-09-02T03:23:23.369Z,9.35
2022-09-02T03:25:51.403Z,9.33
2022-09-02T03:28:19.376Z,9.30
2022-09-02T03:30:48.075Z,9.31
2022-09-02T03:33:15.949Z,9.31
2022-09-02T03:35:46.435Z,9.29
2022-09-02T03:38:14.688Z,9.32
2022-09-02T03:40:44.266Z,9.29
2022-09-02T03:43:12.900Z,9.28
2022-09-02T03:45:42.110Z,9.29
2022-09-02T03:48:12.343Z,9.28
2022-09-02T03:50:43.030Z,9.25
2022-09-02T03:53:18.036Z,9.24
2022-09-02T03:55:50.718Z,9.24
2022-09-02T03:58:19.857Z,9.23
2022-09-02T04:00:52.812Z,9.17
2022-09-02T04:03:21.366Z,9.16
2022-09-02T04:05:50.651Z,9.18
2022-09-02T04:08:18.718Z,9.15
2022-09-02T04:10:46.725Z,9.18
2022-09-02T04:13:16.038Z,9.18
2022-09-02T04:15:48.058Z,9.16
2022-09-02T04:18:17.663Z,9.18
2022-09-02T04:20:46.367Z,9.18
2022-09-02T04:23:14.396Z,9.18
2022-09-02T04:25:43.261Z,9.20
2022-09-02T04:28:13.136Z,9.22
2022-09-02T04:30:44.166Z,9.25
2022-09-02T04:33:13.755Z,9.29
2022-09-02T04:35:42.566Z,9.33
2022-09-02T04:38:10.954Z,9.37
2022-09-02T04:40:41.863Z,9.40
2022-09-02T04:43:10.218Z,9.42
2022-09-02T04:45:42.592Z,9.43
2022-09-02T04:48:11.075Z,9.45
2022-09-02T04:50:40.555Z,9.48
2022-09-02T04:53:08.746Z,9.52
2022-09-02T04:55:39.185Z,9.59
2022-09-02T04:58:06.926Z,9.60
2022-09-02T05:00:34.834Z,9.65
2022-09-02T05:03:04.968Z,9.71
2022-09-02T05:05:32.846Z,9.73
2022-09-02T05:08:01.549Z,9.74
2022-09-02T05:10:29.435Z,9.77
2022-09-02T05:12:57.282Z,9.77
2022-09-02T05:15:25.155Z,9.77
2022-09-02T05:17:53.175Z,9.79
2022-09-02T05:20:23.179Z,9.78
2022-09-02T05:22:51.538Z,9.78
2022-09-02T05:25:19.442Z,9.80
2022-09-02T05:27:47.342Z,9.78
2022-09-02T05:30:16.018Z,9.80
2022-09-02T05:32:43.963Z,9.80
2022-09-02T05:35:11.835Z,9.79
2022-09-02T05:37:41.095Z,9.82
2022-09-02T05:40:10.782Z,9.76
2022-09-02T05:42:43.542Z,9.77
2022-09-02T05:45:15.648Z,9.82
2022-09-02T05:47:44.623Z,9.86
2022-09-02T05:50:14.329Z,9.90
2022-09-02T05:52:43.947Z,9.95
2022-09-02T05:55:12.260Z,10.06
2022-09-02T05:57:40.168Z,10.21
2022-09-02T06:00:09.254Z,10.52
2022-09-02T06:02:37.189Z,10.51
2022-09-02T06:05:05.686Z,10.48
2022-09-02T06:07:33.560Z,10.51
2022-09-02T06:10:05.940Z,10.54
2022-09-02T06:12:34.048Z,10.60
2022-09-02T06:15:03.031Z,10.65
2022-09-02T06:17:31.102Z,10.64
2022-09-02T06:19:59.006Z,10.65
2022-09-02T06:22:27.574Z,10.66
2022-09-02T06:24:55.463Z,10.68
2022-09-02T06:27:24.736Z,10.73
2022-09-02T06:29:52.773Z,10.74
2022-09-02T06:32:20.738Z,10.74
2022-09-02T06:34:48.939Z,10.75
2022-09-02T06:37:16.996Z,10.77
2022-09-02T06:39:46.694Z,10.84
2022-09-02T06:42:14.604Z,11.41
2022-09-02T06:44:43.900Z,11.62
2022-09-02T06:47:12.499Z,11.56
2022-09-02T06:49:40.514Z,11.32
2022-09-02T06:52:08.802Z,11.26
2022-09-02T06:54:36.724Z,11.26
2022-09-02T06:57:06.815Z,11.24
2022-09-02T06:59:34.703Z,11.30
2022-09-02T07:02:04.169Z,11.37
2022-09-02T07:04:52.094Z,11.41
2022-09-02T07:07:22.277Z,11.46
2022-09-02T07:09:50.479Z,11.45
2022-09-02T07:12:19.647Z,11.50
2022-09-02T07:14:47.602Z,11.53
2022-09-02T07:17:17.996Z,11.58
2022-09-02T07:19:45.702Z,11.57
2022-09-02T07:22:13.615Z,11.66
2022-09-02T07:24:46.711Z,11.73
2022-09-02T07:27:14.794Z,11.79
2022-09-02T07:29:44.102Z,11.80
2022-09-02T07:32:11.983Z,11.79
2022-09-02T07:34:41.323Z,11.78
2022-09-02T07:37:11.154Z,11.85
2022-09-02T07:39:39.114Z,11.87
2022-09-02T07:42:07.701Z,11.97
2022-09-02T07:44:35.991Z,11.99
2022-09-02T07:47:04.062Z,11.95
2022-09-02T07:50:15.369Z,11.95
2022-09-02T07:52:21.718Z,12.05
2022-09-02T07:54:49.693Z,12.12
2022-09-02T07:57:17.675Z,12.11
2022-09-02T07:59:46.286Z,12.09
2022-09-02T08:02:14.551Z,12.14
2022-09-02T08:04:43.819Z,12.23
2022-09-02T08:07:12.312Z,12.32
2022-09-02T08:09:41.582Z,12.42
2022-09-02T08:12:09.571Z,12.55
2022-09-02T08:14:37.627Z,12.65
2022-09-02T08:17:05.576Z,12.71
2022-09-02T08:19:34.403Z,12.75
2022-09-02T08:22:05.288Z,12.60
2022-09-02T08:24:33.510Z,12.57
2022-09-02T08:27:03.005Z,12.45
2022-09-02T08:29:31.799Z,12.28
2022-09-02T08:31:59.837Z,12.12
2022-09-02T08:34:28.379Z,12.08
2022-09-02T08:36:57.097Z,11.97
2022-09-02T08:39:25.692Z,11.93
2022-09-02T08:42:03.801Z,11.96
2022-09-02T08:44:37.561Z,12.04
2022-09-02T08:47:09.447Z,12.16
2022-09-02T08:49:43.191Z,12.25
2022-09-02T08:52:17.823Z,12.35
2022-09-02T08:54:50.034Z,12.47
2022-09-02T08:57:18.192Z,12.57
2022-09-02T08:59:48.946Z,12.70
2022-09-02T09:02:24.862Z,12.82
2022-09-02T09:05:10.125Z,12.93
2022-09-02T09:07:47.017Z,13.06
2022-09-02T09:10:23.003Z,12.96
2022-09-02T09:13:06.254Z,12.90
2022-09-02T09:15:43.866Z,12.93
2022-09-02T09:18:17.041Z,13.09
2022-09-02T09:20:46.000Z,13.05
2022-09-02T09:23:26.188Z,13.05
2022-09-02T09:25:58.326Z,13.02
2022-09-02T09:28:26.406Z,13.06
2022-09-02T09:30:55.717Z,13.02
2022-09-02T09:33:24.393Z,13.04
2022-09-02T09:35:54.275Z,13.02
2022-09-02T09:38:31.470Z,12.98
2022-09-02T09:41:21.660Z,12.99
2022-09-02T09:43:49.709Z,13.10
2022-09-02T09:46:32.275Z,13.17
2022-09-02T09:49:00.346Z,13.21
2022-09-02T09:51:28.283Z,13.28
2022-09-02T09:54:16.171Z,13.24
2022-09-02T09:56:44.131Z,13.27
2022-09-02T09:59:37.345Z,13.20
2022-09-02T10:02:06.735Z,13.31
2022-09-02T10:04:43.652Z,13.36
2022-09-02T10:07:13.574Z,13.42
2022-09-02T10:09:41.739Z,13.44
2022-09-02T10:12:12.111Z,13.43
2022-09-02T10:14:44.581Z,13.37
2022-09-02T10:17:28.452Z,13.35
2022-09-02T10:20:01.112Z,13.28
2022-09-02T10:22:59.773Z,13.18
2022-09-02T10:25:32.748Z,13.13
2022-09-02T10:28:07.969Z,13.29
2022-09-02T10:30:42.680Z,13.27
2022-09-02T10:33:25.775Z,13.21
2022-09-02T10:36:00.640Z,13.27
2022-09-02T10:38:44.098Z,13.28
2022-09-02T10:41:27.609Z,13.37
2022-09-02T10:44:09.949Z,13.29
2022-09-02T10:46:48.627Z,13.21
2022-09-02T10:49:31.542Z,13.26
2022-09-02T10:52:09.511Z,13.24
2022-09-02T10:54:46.323Z,13.34
2022-09-02T10:57:19.983Z,13.42
2022-09-02T10:59:52.723Z,13.55
2022-09-02T11:02:25.717Z,13.55
2022-09-02T11:05:00.967Z,13.61
2022-09-02T11:07:35.219Z,13.62
2022-09-02T11:10:10.391Z,13.70
2022-09-02T11:12:41.651Z,13.89
2022-09-02T11:15:18.638Z,13.71
2022-09-02T11:17:52.170Z,13.75
2022-09-02T11:20:31.194Z,13.85
2022-09-02T11:23:07.299Z,13.79
2022-09-02T11:25:40.790Z,13.79
2022-09-02T11:28:25.158Z,13.87
2022-09-02T11:30:59.178Z,14.05
2022-09-02T11:33:35.222Z,14.15
2022-09-02T11:36:05.423Z,13.86
2022-09-02T11:38:38.212Z,13.58
2022-09-02T11:41:35.884Z,13.54
2022-09-02T11:44:22.023Z,13.32
2022-09-02T11:47:10.180Z,13.24
2022-09-02T11:50:11.211Z,12.99
2022-09-02T11:53:01.305Z,12.94
2022-09-02T11:55:35.458Z,13.01
2022-09-02T11:58:04.063Z,13.00
2022-09-02T12:00:36.658Z,13.01
2022-09-02T12:03:38.813Z,13.00
2022-09-02T12:06:13.772Z,13.06
2022-09-02T12:09:13.226Z,13.24
2022-09-02T12:11:53.326Z,13.38
2022-09-02T12:15:06.441Z,13.54
2022-09-02T12:17:40.101Z,13.77
2022-09-02T12:20:11.299Z,13.82
2022-09-02T12:22:40.344Z,13.87
2022-09-02T12:25:40.398Z,13.91
2022-09-02T12:28:19.191Z,13.96
2022-09-02T12:31:13.177Z,13.97
2022-09-02T12:33:42.704Z,14.02
2022-09-02T12:36:32.025Z,14.01
2022-09-02T12:39:51.703Z,14.01
2022-09-02T12:42:24.295Z,14.02
2022-09-02T12:44:58.227Z,14.00
2022-09-02T12:47:36.821Z,13.96
2022-09-02T12:50:11.619Z,13.92
2022-09-02T12:52:44.832Z,13.89
2022-09-02T12:55:20.616Z,13.82
2022-09-02T12:57:51.648Z,13.71
2022-09-02T13:00:34.836Z,13.59
2022-09-02T13:03:26.123Z,13.45
2022-09-02T13:06:00.443Z,13.37
2022-09-02T13:08:57.377Z,13.26
2022-09-02T13:12:00.771Z,13.18
2022-09-02T13:14:43.634Z,13.21
2022-09-02T13:17:37.063Z,13.22
2022-09-02T13:20:39.064Z,13.21
2022-09-02T13:23:32.246Z,13.20
2022-09-02T13:26:32.826Z,13.19
2022-09-02T13:29:30.429Z,13.24
2022-09-02T13:32:02.670Z,13.25
2022-09-02T13:34:31.371Z,13.29
2022-09-02T13:36:59.321Z,13.33
2022-09-02T13:39:29.044Z,13.42
2022-09-02T13:41:57.289Z,13.50
2022-09-02T13:44:29.031Z,13.62
2022-09-02T13:47:04.583Z,13.80
2022-09-02T13:49:37.956Z,13.89
2022-09-02T13:52:16.989Z,13.92
2022-09-02T13:54:48.606Z,13.95
2022-09-02T13:57:23.335Z,13.89
2022-09-02T13:59:57.232Z,13.94
2022-09-02T14:02:29.168Z,14.08
2022-09-02T14:05:01.042Z,14.17
2022-09-02T14:07:33.934Z,14.24
2022-09-02T14:10:05.450Z,14.35
2022-09-02T14:12:35.029Z,14.42
2022-09-02T14:15:06.834Z,14.44
2022-09-02T14:17:36.042Z,14.49
2022-09-02T14:20:12.014Z,14.44
2022-09-02T14:22:40.269Z,14.38
2022-09-02T14:25:14.743Z,14.12
2022-09-02T14:27:49.780Z,14.04
2022-09-02T14:30:32.390Z,14.09
2022-09-02T14:33:27.423Z,14.18
2022-09-02T14:36:00.267Z,14.22
2022-09-02T14:38:30.848Z,14.25
2022-09-02T14:41:04.051Z,14.37
2022-09-02T14:43:41.558Z,14.39
2022-09-02T14:46:22.981Z,14.53
2022-09-02T14:48:56.095Z,14.64
2022-09-02T14:51:24.224Z,14.59
2022-09-02T14:53:52.983Z,14.52
2022-09-02T14:56:46.059Z,14.35
2022-09-02T14:59:14.147Z,14.37
2022-09-02T15:01:46.705Z,14.21
2022-09-02T15:04:15.488Z,14.17
2022-09-02T15:06:43.922Z,14.14
2022-09-02T15:09:12.063Z,14.06
2022-09-02T15:11:41.584Z,13.88
2022-09-02T15:14:09.444Z,13.90
2022-09-02T15:16:37.322Z,13.82
2022-09-02T15:19:06.781Z,13.77
2022-09-02T15:21:34.664Z,13.74
2022-09-02T15:24:02.704Z,13.71
2022-09-02T15:26:30.681Z,13.70
2022-09-02T15:28:58.834Z,13.66
2022-09-02T15:31:27.274Z,13.58
2022-09-02T15:33:55.271Z,13.61
2022-09-02T15:36:26.283Z,13.55
2022-09-02T15:38:54.211Z,13.48
2022-09-02T15:41:24.008Z,13.45
2022-09-02T15:43:55.458Z,13.43
2022-09-02T15:46:28.325Z,13.44
2022-09-02T15:49:01.759Z,13.41
2022-09-02T15:51:32.251Z,13.44
2022-09-02T15:54:02.263Z,13.48
2022-09-02T15:56:32.099Z,13.52
2022-09-02T15:59:02.966Z,13.58
2022-09-02T16:01:32.385Z,13.59
2022-09-02T16:04:02.460Z,13.60
2022-09-02T16:06:33.097Z,13.64
2022-09-02T16:09:01.290Z,13.65
2022-09-02T16:11:29.975Z,13.66
2022-09-02T16:13:57.896Z,13.64
2022-09-02T16:16:26.195Z,13.67
2022-09-02T16:18:55.150Z,13.68
2022-09-02T16:21:23.581Z,13.67
2022-09-02T16:23:54.223Z,13.64
2022-09-02T16:26:26.603Z,13.61
2022-09-02T16:28:56.655Z,13.63
2022-09-02T16:31:26.922Z,13.56
2022-09-02T16:33:56.948Z,13.55
2022-09-02T16:36:26.884Z,13.52
2022-09-02T16:39:03.356Z,13.44
2022-09-02T16:41:34.520Z,13.37
2022-09-02T16:44:04.250Z,13.29
2022-09-02T16:46:32.571Z,13.27
2022-09-02T16:49:00.523Z,13.24
2022-09-02T16:51:30.186Z,13.22
2022-09-02T16:54:00.324Z,13.16
2022-09-02T16:56:30.653Z,13.13
2022-09-02T16:59:02.156Z,13.10
2022-09-02T17:01:32.626Z,13.07
2022-09-02T17:04:01.351Z,13.06
2022-09-02T17:06:29.726Z,13.06
2022-09-02T17:08:58.365Z,13.03
2022-09-02T17:11:28.518Z,12.99
2022-09-02T17:13:59.907Z,12.94
2022-09-02T17:16:30.733Z,12.90
2022-09-02T17:18:59.282Z,12.89
2022-09-02T17:21:30.439Z,12.82
2022-09-02T17:23:59.087Z,12.74
2022-09-02T17:26:28.808Z,12.65
2022-09-02T17:28:58.683Z,12.63
2022-09-02T17:31:29.158Z,12.58
2022-09-02T17:33:57.728Z,12.42
2022-09-02T17:36:26.854Z,12.36
2022-09-02T17:38:56.757Z,12.33
2022-09-02T17:41:42.076Z,12.26
2022-09-02T17:44:11.371Z,12.21
2022-09-02T17:46:39.281Z,12.17
2022-09-02T17:49:16.705Z,12.10
2022-09-02T17:51:45.308Z,12.05
2022-09-02T17:54:14.171Z,12.01
2022-09-02T17:56:47.580Z,11.97
2022-09-02T17:59:21.531Z,11.88
2022-09-02T18:02:04.043Z,11.84
2022-09-02T18:04:39.603Z,11.79
2022-09-02T18:07:14.831Z,11.72
2022-09-02T18:09:42.615Z,11.59
2022-09-02T18:12:10.304Z,11.47
2022-09-02T18:14:41.173Z,11.37
2022-09-02T18:17:15.027Z,11.26
2022-09-02T18:19:50.618Z,11.26
2022-09-02T18:22:30.350Z,11.21
2022-09-02T18:25:10.635Z,11.12
2022-09-02T18:27:43.065Z,10.99
2022-09-02T18:30:14.625Z,10.93
2022-09-02T18:32:56.583Z,10.84
2022-09-02T18:35:32.265Z,10.79
2022-09-02T18:38:07.860Z,10.74
2022-09-02T18:40:44.148Z,10.71
2022-09-02T18:43:15.866Z,10.65
2022-09-02T18:45:48.554Z,10.58
2022-09-02T18:48:18.254Z,10.53
2022-09-02T18:50:51.860Z,10.51
2022-09-02T18:53:22.202Z,10.46
2022-09-02T18:55:50.042Z,10.43
2022-09-02T18:58:22.870Z,10.39
2022-09-02T19:00:53.919Z,10.33
2022-09-02T19:03:21.706Z,10.24
2022-09-02T19:05:49.439Z,10.23
2022-09-02T19:08:33.373Z,10.18
2022-09-02T19:11:03.154Z,10.11
2022-09-02T19:13:31.823Z,10.04
2022-09-02T19:16:04.236Z,9.93
2022-09-02T19:18:32.623Z,9.88
2022-09-02T19:21:00.415Z,9.81
2022-09-02T19:23:28.804Z,9.54
2022-09-02T19:25:57.770Z,9.38
2022-09-02T19:28:25.475Z,9.34
2022-09-02T19:30:54.675Z,9.33
2022-09-02T19:33:23.821Z,9.32
2022-09-02T19:35:51.862Z,9.32
2022-09-02T19:38:19.615Z,9.25
2022-09-02T19:40:49.513Z,9.15
2022-09-02T19:43:17.502Z,9.07
2022-09-02T19:45:48.964Z,9.00
2022-09-02T19:48:16.743Z,9.00
2022-09-02T19:50:47.024Z,9.01
2022-09-02T19:53:18.073Z,8.93
2022-09-02T19:55:45.798Z,8.89
2022-09-02T19:58:14.016Z,8.83
2022-09-02T20:00:43.147Z,8.76
2022-09-02T20:03:11.915Z,8.79
2022-09-02T20:05:41.307Z,8.79
2022-09-02T20:08:10.687Z,8.75
2022-09-02T20:10:38.606Z,8.68
2022-09-02T20:13:06.912Z,8.64
2022-09-02T20:15:37.954Z,8.58
2022-09-02T20:18:13.865Z,8.49
2022-09-02T20:20:43.341Z,8.47
2022-09-02T20:23:17.198Z,8.42
2022-09-02T20:25:53.593Z,8.36
2022-09-02T20:28:25.131Z,8.35
2022-09-02T20:30:58.922Z,8.31
2022-09-02T20:33:32.036Z,8.28
2022-09-02T20:36:07.311Z,8.29
2022-09-02T20:38:52.708Z,8.25
2022-09-02T20:41:28.630Z,8.19
2022-09-02T20:44:06.770Z,8.12
2022-09-02T20:46:48.155Z,8.08
2022-09-02T20:49:26.758Z,8.11
2022-09-02T20:51:57.606Z,8.08
2022-09-02T20:54:33.107Z,8.00
2022-09-02T20:57:11.926Z,7.99
2022-09-02T20:59:45.471Z,7.96
2022-09-02T21:02:14.753Z,7.91
2022-09-02T21:04:44.994Z,7.91
2022-09-02T21:07:15.948Z,7.91
2022-09-02T21:09:46.107Z,7.90
2022-09-02T21:12:19.680Z,7.85
2022-09-02T21:14:48.698Z,7.80
2022-09-02T21:17:20.935Z,7.77
2022-09-02T21:19:53.562Z,7.74
2022-09-02T21:22:22.912Z,7.70
2022-09-02T21:24:54.122Z,7.63
2022-09-02T21:27:25.736Z,7.61
2022-09-02T21:30:01.610Z,7.63
2022-09-02T21:32:34.875Z,7.63
2022-09-02T21:35:04.670Z,7.61
2022-09-02T21:37:36.727Z,7.56
2022-09-02T21:40:06.835Z,7.55
2022-09-02T21:42:41.638Z,7.52
2022-09-02T21:45:14.528Z,7.51
2022-09-02T21:47:45.819Z,7.50
2022-09-02T21:50:22.084Z,7.48
2022-09-02T21:52:56.952Z,7.49
2022-09-02T21:55:31.110Z,7.45
2022-09-02T21:58:12.747Z,7.42
2022-09-02T22:00:44.707Z,7.39
2022-09-02T22:03:16.367Z,7.36
2022-09-02T22:05:48.716Z,7.31
2022-09-02T22:08:22.108Z,7.28
2022-09-02T22:10:55.419Z,7.33
2022-09-02T22:13:26.034Z,7.32
2022-09-02T22:15:59.163Z,7.31
2022-09-02T22:18:34.109Z,7.29
2022-09-02T22:21:06.150Z,7.27
2022-09-02T22:23:36.289Z,7.20
2022-09-02T22:26:12.440Z,7.19
2022-09-02T22:28:45.575Z,7.24
2022-09-02T22:31:16.218Z,7.20
2022-09-02T22:33:49.110Z,7.23
2022-09-02T22:36:25.391Z,7.16
2022-09-02T22:38:53.417Z,7.16
2022-09-02T22:41:25.039Z,7.18
2022-09-02T22:43:57.252Z,7.15
2022-09-02T22:46:47.079Z,7.17
2022-09-02T22:49:44.707Z,7.20
2022-09-02T22:52:39.646Z,7.19
2022-09-02T22:55:12.142Z,7.20
2022-09-02T22:57:45.326Z,7.25
2022-09-02T23:00:16.219Z,7.25
2022-09-02T23:02:48.950Z,7.22
2022-09-02T23:05:36.610Z,7.24
2022-09-02T23:08:04.794Z,7.21
2022-09-02T23:10:32.475Z,7.17
2022-09-02T23:13:03.342Z,7.12
2022-09-02T23:15:37.858Z,7.16
2022-09-02T23:18:11.878Z,7.16
2022-09-02T23:20:46.440Z,7.06
2022-09-02T23:23:24.800Z,7.06
2022-09-02T23:26:05.134Z,7.01
2022-09-02T23:28:36.488Z,7.01
2022-09-02T23:31:12.738Z,7.01
2022-09-02T23:33:49.543Z,7.01
2022-09-02T23:36:20.273Z,7.05
2022-09-02T23:39:01.047Z,7.07
2022-09-02T23:41:29.888Z,7.12
2022-09-02T23:43:58.082Z,7.14
2022-09-02T23:46:34.434Z,7.10
2022-09-02T23:49:06.887Z,7.13
2022-09-02T23:51:40.618Z,7.14
2022-09-02T23:54:16.766Z,7.15
2022-09-02T23:56:53.858Z,7.14
2022-09-02T23:59:30.435Z,7.16
